createdAt,value
2023-02-14T00:01:40.880Z,53.98
2023-02-14T00:04:09.644Z,53.80
2023-02-14T00:06:39.235Z,53.66
2023-02-14T00:09:18.823Z,53.72
2023-02-14T00:11:47.029Z,53.99
2023-02-14T00:14:35.449Z,53.83
2023-02-14T00:17:04.754Z,53.85
2023-02-14T00:19:34.912Z,53.98
2023-02-14T00:22:04.375Z,53.75
2023-02-14T00:24:32.400Z,53.88
2023-02-14T00:27:00.838Z,54.20
2023-02-14T00:29:31.776Z,54.05
2023-02-14T00:32:00.624Z,53.87
2023-02-14T00:34:29.268Z,54.05
2023-02-14T00:36:57.440Z,53.87
2023-02-14T00:39:25.497Z,54.22
2023-02-14T00:41:53.539Z,53.95
2023-02-14T00:44:21.834Z,54.11
2023-02-14T00:46:49.869Z,54.10
2023-02-14T00:49:18.138Z,54.03
2023-02-14T00:51:46.607Z,54.06
2023-02-14T00:54:14.812Z,53.89
2023-02-14T00:56:42.862Z,54.08
2023-02-14T00:59:10.950Z,54.00
2023-02-14T01:01:39.398Z,54.18
2023-02-14T01:04:08.134Z,54.39
2023-02-14T01:06:36.722Z,54.22
2023-02-14T01:09:04.892Z,54.26
2023-02-14T01:11:35.120Z,54.30
2023-02-14T01:14:03.509Z,54.15
2023-02-14T01:16:31.628Z,54.21
2023-02-14T01:19:01.101Z,54.19
2023-02-14T01:21:31.833Z,54.19
2023-02-14T01:24:06.762Z,54.31
2023-02-14T01:26:36.171Z,54.41
2023-02-14T01:29:05.270Z,54.26
2023-02-14T01:31:35.575Z,54.07
2023-02-14T01:34:04.845Z,54.01
2023-02-14T01:36:38.083Z,54.27
2023-02-14T01:39:10.559Z,54.42
2023-02-14T01:41:41.491Z,54.40
2023-02-14T01:44:15.926Z,54.20
2023-02-14T01:46:45.544Z,54.37
2023-02-14T01:49:26.309Z,54.36
2023-02-14T01:52:05.437Z,54.60
2023-02-14T01:54:38.429Z,54.46
2023-02-14T01:57:10.069Z,54.42
2023-02-14T01:59:43.695Z,54.45
2023-02-14T02:02:12.220Z,54.39
2023-02-14T02:04:45.571Z,54.25
2023-02-14T02:07:21.102Z,54.30
2023-02-14T02:10:00.755Z,54.22
2023-02-14T02:12:30.771Z,54.36
2023-02-14T02:15:01.420Z,54.85
2023-02-14T02:17:35.116Z,54.46
2023-02-14T02:20:14.342Z,54.48
2023-02-14T02:23:04.011Z,54.60
2023-02-14T02:25:38.141Z,54.24
2023-02-14T02:28:09.506Z,54.55
2023-02-14T02:30:51.245Z,54.51
2023-02-14T02:33:49.126Z,54.62
2023-02-14T02:36:42.172Z,54.59
2023-02-14T02:39:22.418Z,54.58
2023-02-14T02:42:04.948Z,54.53
2023-02-14T02:44:45.278Z,54.71
2023-02-14T02:47:22.568Z,54.45
2023-02-14T02:50:13.834Z,54.55
2023-02-14T02:53:15.310Z,54.81
2023-02-14T02:56:15.426Z,54.91
2023-02-14T02:58:46.471Z,54.60
2023-02-14T03:01:20.999Z,54.75
2023-02-14T03:04:14.663Z,54.76
2023-02-14T03:06:45.331Z,54.69
2023-02-14T03:09:33.517Z,54.76
2023-02-14T03:12:17.699Z,54.76
2023-02-14T03:14:57.405Z,54.72
2023-02-14T03:17:30.801Z,54.64
2023-02-14T03:20:18.418Z,54.99
2023-02-14T03:22:57.485Z,54.90
2023-02-14T03:25:34.737Z,54.79
2023-02-14T03:28:31.050Z,54.97
2023-02-14T03:31:45.053Z,55.15
2023-02-14T03:34:19.186Z,54.93
2023-02-14T03:36:59.646Z,55.04
2023-02-14T03:40:06.817Z,55.15
2023-02-14T03:42:50.645Z,55.17
2023-02-14T03:45:27.808Z,54.86
2023-02-14T03:48:00.826Z,54.82
2023-02-14T03:50:31.707Z,54.98
2023-02-14T03:53:01.605Z,54.92
2023-02-14T03:55:49.352Z,54.93
2023-02-14T03:58:24.665Z,55.11
2023-02-14T04:01:06.646Z,55.02
2023-02-14T04:03:39.406Z,55.13
2023-02-14T04:06:08.526Z,55.17
2023-02-14T04:08:36.708Z,55.33
2023-02-14T04:11:05.926Z,55.27
2023-02-14T04:13:37.258Z,55.14
2023-02-14T04:16:06.761Z,55.11
2023-02-14T04:18:53.591Z,55.05
2023-02-14T04:21:21.522Z,55.17
2023-02-14T04:23:49.850Z,55.33
2023-02-14T04:26:18.003Z,55.51
2023-02-14T04:28:45.966Z,55.32
2023-02-14T04:31:14.215Z,55.31
2023-02-14T04:33:42.338Z,55.33
2023-02-14T04:36:10.371Z,55.33
2023-02-14T04:38:38.492Z,55.22
2023-02-14T04:41:06.771Z,55.32
2023-02-14T04:43:35.055Z,55.52
2023-02-14T04:46:03.231Z,55.20
2023-02-14T04:48:31.349Z,55.40
2023-02-14T04:50:59.710Z,55.57
2023-02-14T04:53:28.083Z,55.33
2023-02-14T04:55:56.456Z,55.51
2023-02-14T04:58:24.629Z,55.54
2023-02-14T05:00:52.665Z,55.46
2023-02-14T05:03:20.886Z,55.43
2023-02-14T05:05:49.063Z,55.52
2023-02-14T05:08:18.125Z,55.55
2023-02-14T05:10:46.238Z,55.48
2023-02-14T05:13:14.648Z,55.51
2023-02-14T05:15:45.278Z,55.36
2023-02-14T05:18:13.268Z,55.60
2023-02-14T05:20:41.422Z,55.48
2023-02-14T05:23:13.836Z,55.48
2023-02-14T05:25:42.575Z,55.73
2023-02-14T05:28:11.063Z,55.49
2023-02-14T05:30:39.559Z,55.50
2023-02-14T05:33:07.708Z,55.57
2023-02-14T05:35:35.903Z,55.63
2023-02-14T05:38:04.850Z,55.52
2023-02-14T05:40:33.796Z,55.46
2023-02-14T05:43:01.976Z,55.47
2023-02-14T05:45:30.080Z,55.47
2023-02-14T05:47:58.347Z,55.47
2023-02-14T05:50:26.615Z,55.64
2023-02-14T05:52:56.130Z,55.71
2023-02-14T05:55:25.537Z,55.41
2023-02-14T05:57:53.630Z,55.51
2023-02-14T06:00:23.958Z,55.50
2023-02-14T06:02:52.010Z,55.34
2023-02-14T06:05:21.317Z,55.53
2023-02-14T06:07:52.669Z,55.61
2023-02-14T06:10:23.408Z,55.50
2023-02-14T06:12:54.048Z,55.42
2023-02-14T06:15:22.624Z,55.58
2023-02-14T06:17:52.882Z,55.56
2023-02-14T06:20:22.052Z,55.66
2023-02-14T06:22:50.572Z,55.60
2023-02-14T06:25:19.010Z,55.49
2023-02-14T06:27:49.273Z,55.63
2023-02-14T06:30:18.707Z,55.54
2023-02-14T06:32:46.836Z,55.42
2023-02-14T06:35:15.525Z,55.61
2023-02-14T06:37:45.453Z,55.47
2023-02-14T06:40:14.459Z,55.57
2023-02-14T06:42:42.620Z,55.52
2023-02-14T06:45:11.114Z,55.45
2023-02-14T06:47:39.189Z,55.59
2023-02-14T06:50:08.390Z,55.56
2023-02-14T06:52:36.463Z,55.41
2023-02-14T06:55:05.155Z,55.54
2023-02-14T06:57:33.133Z,55.43
2023-02-14T07:00:01.098Z,55.67
2023-02-14T07:02:29.216Z,55.72
2023-02-14T07:04:57.875Z,55.69
2023-02-14T07:07:26.143Z,55.52
2023-02-14T07:09:54.430Z,55.62
2023-02-14T07:12:22.404Z,55.63
2023-02-14T07:14:50.324Z,55.43
2023-02-14T07:17:18.468Z,55.62
2023-02-14T07:19:46.525Z,55.60
2023-02-14T07:22:14.763Z,55.53
2023-02-14T07:24:42.947Z,55.62
2023-02-14T07:27:10.964Z,55.56
2023-02-14T07:29:39.039Z,55.66
2023-02-14T07:32:07.460Z,55.65
2023-02-14T07:34:35.638Z,55.68
2023-02-14T07:37:03.677Z,55.75
2023-02-14T07:39:32.068Z,55.61
2023-02-14T07:42:00.349Z,55.60
2023-02-14T07:44:28.420Z,55.69
2023-02-14T07:46:56.804Z,55.68
2023-02-14T07:49:24.865Z,55.63
2023-02-14T07:51:52.959Z,55.53
2023-02-14T07:54:21.331Z,55.64
2023-02-14T07:56:49.785Z,55.75
2023-02-14T07:59:17.994Z,55.74
2023-02-14T08:01:46.104Z,55.75
2023-02-14T08:04:14.555Z,55.72
2023-02-14T08:06:43.445Z,55.88
2023-02-14T08:09:11.842Z,55.75
2023-02-14T08:11:58.952Z,55.71
2023-02-14T08:14:27.023Z,55.72
2023-02-14T08:16:55.023Z,55.95
2023-02-14T08:19:23.073Z,55.64
2023-02-14T08:21:51.134Z,55.65
2023-02-14T08:24:19.117Z,55.73
2023-02-14T08:26:47.228Z,55.70
2023-02-14T08:29:16.873Z,55.65
2023-02-14T08:31:45.885Z,55.76
2023-02-14T08:34:15.015Z,55.83
2023-02-14T08:36:43.499Z,55.92
2023-02-14T08:39:11.879Z,55.92
2023-02-14T08:41:39.948Z,55.93
2023-02-14T08:44:07.881Z,55.93
2023-02-14T08:46:36.273Z,55.92
2023-02-14T08:49:04.740Z,55.81
2023-02-14T08:51:32.868Z,55.82
2023-02-14T08:54:01.149Z,55.78
2023-02-14T08:56:29.134Z,55.92
2023-02-14T08:58:57.325Z,55.91
2023-02-14T09:01:25.446Z,56.06
2023-02-14T09:03:53.804Z,55.98
2023-02-14T09:06:21.823Z,55.94
2023-02-14T09:08:50.780Z,55.93
2023-02-14T09:11:22.630Z,56.02
2023-02-14T09:13:55.516Z,56.07
2023-02-14T09:16:25.013Z,55.90
2023-02-14T09:18:54.781Z,56.00
2023-02-14T09:21:26.685Z,56.15
2023-02-14T09:23:55.079Z,55.98
2023-02-14T09:26:23.070Z,55.99
2023-02-14T09:28:51.190Z,56.01
2023-02-14T09:31:21.740Z,56.09
2023-02-14T09:33:51.142Z,56.01
2023-02-14T09:36:19.219Z,56.07
2023-02-14T09:38:47.916Z,56.00
2023-02-14T09:41:48.127Z,56.02
2023-02-14T09:44:56.548Z,55.88
2023-02-14T09:47:43.122Z,55.92
2023-02-14T09:50:24.052Z,56.13
2023-02-14T09:52:57.383Z,56.05
2023-02-14T09:55:32.316Z,56.00
2023-02-14T09:58:00.401Z,55.86
2023-02-14T10:00:37.968Z,55.94
2023-02-14T10:03:42.060Z,56.11
2023-02-14T10:06:27.356Z,56.01
2023-02-14T10:09:01.323Z,56.05
2023-02-14T10:11:30.259Z,56.04
2023-02-14T10:14:01.929Z,56.02
2023-02-14T10:16:39.296Z,56.07
2023-02-14T10:19:14.139Z,56.05
2023-02-14T10:21:48.074Z,56.05
2023-02-14T10:24:38.290Z,56.20
2023-02-14T10:27:32.908Z,56.05
2023-02-14T10:30:03.110Z,56.11
2023-02-14T10:33:13.782Z,56.08
2023-02-14T10:35:48.950Z,55.93
2023-02-14T10:38:44.030Z,56.01
2023-02-14T10:41:49.346Z,56.02
2023-02-14T10:44:26.364Z,56.05
2023-02-14T10:46:57.885Z,56.08
2023-02-14T10:49:36.388Z,56.08
2023-02-14T10:52:38.132Z,56.15
2023-02-14T10:55:30.033Z,56.07
2023-02-14T10:58:04.990Z,56.03
2023-02-14T11:00:37.567Z,55.98
2023-02-14T11:03:08.610Z,55.99
2023-02-14T11:05:45.047Z,56.11
2023-02-14T11:08:22.571Z,55.93
2023-02-14T11:10:51.684Z,56.00
2023-02-14T11:13:39.429Z,55.95
2023-02-14T11:16:12.078Z,55.94
2023-02-14T11:18:41.472Z,55.98
2023-02-14T11:21:24.495Z,55.97
2023-02-14T11:23:52.779Z,55.86
2023-02-14T11:26:25.239Z,55.86
2023-02-14T11:29:01.342Z,55.77
2023-02-14T11:31:34.918Z,55.83
2023-02-14T11:34:23.040Z,55.73
2023-02-14T11:36:51.546Z,55.75
2023-02-14T11:39:32.584Z,55.81
2023-02-14T11:42:05.848Z,55.64
2023-02-14T11:44:37.044Z,55.70
2023-02-14T11:47:28.356Z,55.65
2023-02-14T11:49:57.973Z,55.71
2023-02-14T11:52:29.786Z,55.66
2023-02-14T11:54:58.908Z,55.54
2023-02-14T11:57:35.281Z,55.59
2023-02-14T12:00:16.076Z,55.54
2023-02-14T12:02:50.026Z,55.57
2023-02-14T12:05:47.709Z,55.62
2023-02-14T12:08:23.669Z,55.63
2023-02-14T12:11:22.670Z,55.44
2023-02-14T12:13:55.448Z,55.48
2023-02-14T12:16:35.497Z,55.38
2023-02-14T12:19:10.940Z,55.35
2023-02-14T12:22:03.001Z,55.34
2023-02-14T12:24:48.952Z,55.37
2023-02-14T12:28:04.105Z,55.32
2023-02-14T12:30:35.249Z,55.43
2023-02-14T12:33:06.077Z,55.15
2023-02-14T12:35:34.053Z,55.19
2023-02-14T12:38:29.338Z,55.15
2023-02-14T12:41:21.880Z,55.21
2023-02-14T12:43:53.862Z,55.10
2023-02-14T12:46:35.634Z,55.15
2023-02-14T12:49:03.818Z,55.14
2023-02-14T12:51:50.622Z,55.23
2023-02-14T12:54:52.674Z,55.11
2023-02-14T12:57:23.605Z,55.19
2023-02-14T13:00:04.785Z,55.14
2023-02-14T13:02:46.107Z,55.19
2023-02-14T13:05:41.565Z,55.08
2023-02-14T13:08:35.032Z,55.07
2023-02-14T13:11:21.002Z,54.99
2023-02-14T13:14:04.731Z,54.97
2023-02-14T13:16:41.922Z,54.94
2023-02-14T13:19:44.178Z,54.96
2023-02-14T13:22:18.191Z,54.97
2023-02-14T13:24:50.688Z,54.95
2023-02-14T13:27:23.352Z,54.98
2023-02-14T13:29:59.744Z,54.95
2023-02-14T13:32:33.418Z,55.03
2023-02-14T13:35:02.315Z,54.81
2023-02-14T13:37:31.700Z,54.80
2023-02-14T13:40:05.329Z,54.99
2023-02-14T13:42:49.047Z,54.91
2023-02-14T13:45:51.743Z,54.79
2023-02-14T13:48:23.083Z,54.88
2023-02-14T13:51:06.192Z,54.88
2023-02-14T13:53:46.776Z,54.96
2023-02-14T13:56:17.789Z,54.92
2023-02-14T13:58:48.835Z,54.78
2023-02-14T14:01:29.298Z,54.95
2023-02-14T14:04:03.950Z,54.81
2023-02-14T14:07:12.207Z,54.86
2023-02-14T14:09:43.312Z,54.83
2023-02-14T14:12:26.298Z,54.80
2023-02-14T14:15:06.828Z,54.76
2023-02-14T14:17:42.919Z,54.89
2023-02-14T14:20:16.824Z,54.84
2023-02-14T14:22:56.919Z,54.90
2023-02-14T14:25:38.337Z,54.76
2023-02-14T14:28:19.620Z,54.70
2023-02-14T14:30:48.698Z,54.61
2023-02-14T14:33:32.445Z,54.66
2023-02-14T14:36:21.409Z,54.73
2023-02-14T14:38:52.434Z,54.80
2023-02-14T14:41:28.930Z,54.72
2023-02-14T14:43:59.822Z,54.82
2023-02-14T14:46:28.026Z,54.86
2023-02-14T14:48:57.244Z,54.85
2023-02-14T14:51:32.385Z,54.85
2023-02-14T14:54:07.205Z,54.73
2023-02-14T14:56:39.884Z,54.75
2023-02-14T14:59:17.375Z,54.64
2023-02-14T15:01:46.579Z,54.70
2023-02-14T15:04:14.602Z,54.85
2023-02-14T15:06:42.940Z,54.95
2023-02-14T15:09:16.749Z,54.96
2023-02-14T15:12:05.495Z,54.94
2023-02-14T15:14:42.629Z,54.73
2023-02-14T15:17:32.905Z,54.89
2023-02-14T15:20:08.608Z,54.81
2023-02-14T15:22:46.220Z,54.84
2023-02-14T15:25:21.388Z,54.81
2023-02-14T15:27:50.487Z,54.76
2023-02-14T15:30:34.406Z,54.77
2023-02-14T15:33:04.838Z,54.91
2023-02-14T15:35:35.448Z,55.01
2023-02-14T15:38:07.072Z,54.97
2023-02-14T15:40:36.021Z,54.87
2023-02-14T15:43:22.191Z,54.93
2023-02-14T15:45:52.869Z,54.96
2023-02-14T15:48:23.863Z,55.00
2023-02-14T15:50:56.006Z,54.99
2023-02-14T15:53:44.686Z,55.04
2023-02-14T15:56:24.905Z,54.89
2023-02-14T15:59:00.530Z,54.98
2023-02-14T16:01:30.441Z,55.07
2023-02-14T16:04:02.566Z,55.01
2023-02-14T16:06:50.202Z,55.09
2023-02-14T16:09:29.825Z,55.08
2023-02-14T16:11:57.779Z,55.03
2023-02-14T16:14:35.489Z,55.07
2023-02-14T16:17:14.418Z,55.01
2023-02-14T16:19:45.678Z,55.13
2023-02-14T16:22:34.797Z,55.23
2023-02-14T16:25:02.796Z,55.29
2023-02-14T16:27:30.970Z,55.25
2023-02-14T16:29:59.314Z,55.16
2023-02-14T16:32:27.748Z,55.04
2023-02-14T16:34:55.813Z,55.09
2023-02-14T16:37:29.217Z,55.18
2023-02-14T16:40:00.149Z,55.13
2023-02-14T16:42:28.429Z,55.17
2023-02-14T16:44:58.044Z,55.23
2023-02-14T16:47:27.980Z,55.16
2023-02-14T16:49:56.248Z,55.28
2023-02-14T16:52:28.828Z,55.21
2023-02-14T16:54:57.323Z,55.20
2023-02-14T16:57:30.686Z,55.26
2023-02-14T16:59:58.802Z,55.26
2023-02-14T17:02:28.670Z,55.29
2023-02-14T17:04:57.312Z,55.22
2023-02-14T17:07:29.474Z,55.27
2023-02-14T17:10:03.529Z,55.28
2023-02-14T17:12:38.064Z,55.33
2023-02-14T17:15:13.027Z,55.46
2023-02-14T17:17:42.019Z,55.38
2023-02-14T17:20:11.110Z,55.48
2023-02-14T17:22:42.629Z,55.41
2023-02-14T17:25:11.375Z,55.39
2023-02-14T17:27:43.965Z,55.41
2023-02-14T17:30:13.740Z,55.65
2023-02-14T17:32:42.909Z,55.51
2023-02-14T17:35:12.095Z,55.56
2023-02-14T17:37:40.359Z,55.43
2023-02-14T17:40:09.993Z,55.53
2023-02-14T17:42:38.957Z,55.42
2023-02-14T17:45:08.549Z,55.48
2023-02-14T17:47:36.658Z,55.48
2023-02-14T17:50:05.444Z,55.47
2023-02-14T17:52:33.618Z,55.46
2023-02-14T17:55:01.697Z,55.50
2023-02-14T17:57:29.878Z,55.52
2023-02-14T17:59:58.766Z,55.58
2023-02-14T18:02:27.246Z,55.72
2023-02-14T18:04:55.303Z,55.62
2023-02-14T18:07:24.030Z,55.48
2023-02-14T18:09:52.384Z,55.53
2023-02-14T18:12:21.103Z,55.59
2023-02-14T18:14:49.405Z,55.51
2023-02-14T18:17:17.667Z,55.60
2023-02-14T18:19:46.871Z,55.54
2023-02-14T18:22:15.044Z,55.64
2023-02-14T18:24:43.234Z,55.51
2023-02-14T18:27:11.293Z,55.59
2023-02-14T18:29:39.683Z,55.54
2023-02-14T18:32:07.804Z,55.66
2023-02-14T18:34:38.246Z,55.60
2023-02-14T18:37:07.305Z,55.70
2023-02-14T18:39:35.268Z,55.67
2023-02-14T18:42:04.668Z,55.62
2023-02-14T18:44:33.675Z,55.67
2023-02-14T18:47:02.845Z,55.70
2023-02-14T18:49:31.247Z,55.70
2023-02-14T18:52:00.446Z,55.74
2023-02-14T18:54:28.437Z,55.71
2023-02-14T18:56:56.493Z,55.67
2023-02-14T18:59:25.298Z,55.63
2023-02-14T19:01:53.374Z,55.74
2023-02-14T19:04:21.733Z,55.63
2023-02-14T19:06:49.844Z,55.65
2023-02-14T19:09:18.831Z,55.67
2023-02-14T19:11:47.026Z,55.62
2023-02-14T19:14:15.389Z,55.73
2023-02-14T19:16:51.165Z,55.79
2023-02-14T19:19:20.082Z,55.72
2023-02-14T19:21:48.593Z,55.75
2023-02-14T19:24:18.649Z,55.76
2023-02-14T19:26:47.346Z,55.76
2023-02-14T19:29:18.097Z,55.68
2023-02-14T19:31:49.955Z,55.67
2023-02-14T19:34:21.026Z,55.62
2023-02-14T19:36:51.761Z,55.74
2023-02-14T19:39:21.418Z,55.84
2023-02-14T19:41:49.917Z,55.78
2023-02-14T19:44:18.805Z,55.83
2023-02-14T19:46:47.786Z,55.74
2023-02-14T19:49:19.306Z,55.81
2023-02-14T19:51:49.005Z,55.94
2023-02-14T19:54:17.360Z,56.07
2023-02-14T19:56:46.982Z,55.98
2023-02-14T19:59:20.218Z,55.83
2023-02-14T20:01:54.849Z,55.89
2023-02-14T20:04:25.926Z,55.89
2023-02-14T20:06:54.648Z,55.81
2023-02-14T20:09:23.709Z,55.86
2023-02-14T20:11:56.925Z,55.93
2023-02-14T20:14:35.960Z,55.87
2023-02-14T20:17:08.942Z,55.79
2023-02-14T20:19:38.005Z,55.91
2023-02-14T20:22:08.291Z,55.88
2023-02-14T20:24:36.518Z,55.89
2023-02-14T20:27:05.231Z,55.92
2023-02-14T20:29:33.299Z,55.89
2023-02-14T20:32:03.761Z,55.96
2023-02-14T20:34:32.012Z,55.93
2023-02-14T20:37:00.497Z,56.01
2023-02-14T20:39:31.626Z,55.87
2023-02-14T20:42:01.258Z,56.02
2023-02-14T20:44:29.948Z,56.07
2023-02-14T20:46:58.255Z,56.03
2023-02-14T20:49:28.270Z,56.18
2023-02-14T20:51:56.959Z,56.00
2023-02-14T20:54:27.524Z,56.07
2023-02-14T20:56:56.068Z,56.10
2023-02-14T20:59:27.175Z,56.15
2023-02-14T21:01:57.155Z,56.19
2023-02-14T21:04:26.044Z,56.10
2023-02-14T21:06:54.621Z,56.09
2023-02-14T21:09:22.689Z,56.04
2023-02-14T21:11:53.421Z,56.07
2023-02-14T21:14:21.458Z,56.01
2023-02-14T21:16:49.773Z,55.96
2023-02-14T21:19:18.284Z,55.93
2023-02-14T21:21:46.337Z,56.02
2023-02-14T21:24:16.002Z,55.93
2023-02-14T21:26:44.857Z,56.08
2023-02-14T21:29:12.933Z,56.08
2023-02-14T21:31:42.481Z,56.22
2023-02-14T21:34:11.130Z,56.11
2023-02-14T21:36:39.199Z,56.02
2023-02-14T21:39:07.790Z,56.14
2023-02-14T21:41:36.792Z,56.01
2023-02-14T21:44:06.375Z,56.10
2023-02-14T21:46:38.684Z,56.23
2023-02-14T21:49:25.697Z,56.16
2023-02-14T21:51:53.890Z,56.08
2023-02-14T21:54:22.157Z,56.20
2023-02-14T21:56:50.122Z,56.11
2023-02-14T21:59:18.390Z,56.18
2023-02-14T22:01:46.583Z,56.35
2023-02-14T22:04:15.067Z,56.36
2023-02-14T22:06:43.956Z,56.20
2023-02-14T22:09:14.022Z,56.57
2023-02-14T22:11:42.569Z,57.00
2023-02-14T22:14:11.216Z,57.22
2023-02-14T22:16:39.943Z,57.39
2023-02-14T22:19:12.722Z,57.45
2023-02-14T22:21:41.835Z,57.57
2023-02-14T22:24:09.868Z,57.59
2023-02-14T22:26:43.714Z,57.60
2023-02-14T22:29:12.827Z,57.72
2023-02-14T22:31:43.566Z,57.53
2023-02-14T22:34:14.573Z,57.43
2023-02-14T22:36:42.611Z,57.36
2023-02-14T22:39:14.056Z,57.30
2023-02-14T22:41:42.534Z,57.34
2023-02-14T22:44:10.799Z,57.36
2023-02-14T22:46:38.919Z,57.23
2023-02-14T22:49:08.072Z,57.25
2023-02-14T22:51:43.596Z,57.16
2023-02-14T22:54:15.194Z,57.08
2023-02-14T22:56:45.696Z,57.17
2023-02-14T22:59:21.164Z,57.03
2023-02-14T23:01:51.198Z,57.08
2023-02-14T23:04:25.062Z,56.98
2023-02-14T23:06:54.069Z,56.86
2023-02-14T23:09:23.553Z,57.00
2023-02-14T23:11:52.175Z,56.89
2023-02-14T23:14:39.889Z,56.88
2023-02-14T23:17:25.986Z,56.86
2023-02-14T23:20:12.752Z,56.92
2023-02-14T23:22:41.369Z,56.97
2023-02-14T23:25:12.354Z,56.99
2023-02-14T23:27:47.235Z,56.99
2023-02-14T23:30:17.813Z,56.82
2023-02-14T23:32:45.851Z,57.02
2023-02-14T23:35:14.123Z,56.88
2023-02-14T23:37:42.188Z,56.86
2023-02-14T23:40:10.696Z,56.92
2023-02-14T23:42:39.180Z,56.99
2023-02-14T23:45:26.632Z,56.88
2023-02-14T23:47:54.733Z,56.99
2023-02-14T23:50:22.860Z,56.92
2023-02-14T23:52:51.246Z,56.90
2023-02-14T23:55:19.517Z,57.02
2023-02-14T23:57:47.638Z,57.05
